createdAt,value
2022-08-08T00:00:54.451Z,91.90
2022-08-08T00:02:33.378Z,92.20
2022-08-08T00:05:00.942Z,91.90
2022-08-08T00:07:58.446Z,92.10
2022-08-08T00:10:33.856Z,92.50
2022-08-08T00:14:17.043Z,93.50
2022-08-08T00:16:24.345Z,92.90
2022-08-08T00:19:18.941Z,93.90
2022-08-08T00:22:05.948Z,94.20
2022-08-08T00:24:44.232Z,94.70
2022-08-08T00:27:13.921Z,94.80
2022-08-08T00:30:05.714Z,95.10
2022-08-08T00:32:36.525Z,95.60
2022-08-08T00:35:24.988Z,95.50
2022-08-08T00:38:31.607Z,96.50
2022-08-08T00:41:10.700Z,96.20
2022-08-08T00:44:02.106Z,97.60
2022-08-08T00:46:32.020Z,97.90
2022-08-08T00:49:22.182Z,98.10
2022-08-08T00:52:20.247Z,98.50
2022-08-08T00:55:36.091Z,99.20
2022-08-08T00:58:35.188Z,99.90
2022-08-08T01:01:45.329Z,99.90
2022-08-08T01:05:05.296Z,99.90
2022-08-08T01:07:55.644Z,99.90
2022-08-08T01:10:52.213Z,99.90
2022-08-08T01:13:37.944Z,99.90
2022-08-08T01:16:53.463Z,99.90
2022-08-08T01:19:52.501Z,99.90
2022-08-08T01:22:35.138Z,99.90
2022-08-08T01:25:26.268Z,99.90
2022-08-08T01:28:29.695Z,99.90
2022-08-08T01:32:05.143Z,99.90
2022-08-08T01:34:29.523Z,99.90
2022-08-08T01:37:56.505Z,99.90
2022-08-08T01:40:22.757Z,99.90
2022-08-08T01:43:00.275Z,99.90
2022-08-08T01:45:29.471Z,99.90
2022-08-08T01:48:23.723Z,99.90
2022-08-08T01:51:31.882Z,99.90
2022-08-08T01:55:26.622Z,99.90
2022-08-08T01:58:04.524Z,99.90
2022-08-08T02:01:03.542Z,99.90
2022-08-08T02:03:58.370Z,99.90
2022-08-08T02:06:36.960Z,99.90
2022-08-08T02:10:02.333Z,99.90
2022-08-08T02:12:30.096Z,99.90
2022-08-08T02:15:05.173Z,99.90
2022-08-08T02:17:47.714Z,99.90
2022-08-08T02:21:02.899Z,99.90
2022-08-08T02:23:32.142Z,99.90
2022-08-08T02:26:10.149Z,99.90
2022-08-08T02:28:51.966Z,99.90
2022-08-08T02:31:59.623Z,99.90
2022-08-08T02:34:38.576Z,99.90
2022-08-08T02:37:52.632Z,99.90
2022-08-08T02:40:28.203Z,99.90
2022-08-08T02:44:39.151Z,99.90
2022-08-08T02:46:34.021Z,99.90
2022-08-08T02:49:47.251Z,99.90
2022-08-08T02:52:35.397Z,99.90
2022-08-08T02:55:37.127Z,99.90
2022-08-08T02:58:47.708Z,99.90
2022-08-08T03:01:55.529Z,99.90
2022-08-08T03:05:02.330Z,99.90
2022-08-08T03:07:58.962Z,99.90
2022-08-08T03:10:44.483Z,99.90
2022-08-08T03:15:57.497Z,99.90
2022-08-08T03:16:40.017Z,99.90
2022-08-08T03:19:20.070Z,99.90
2022-08-08T03:21:58.370Z,99.90
2022-08-08T03:24:32.835Z,99.90
2022-08-08T03:27:21.726Z,99.90
2022-08-08T03:30:06.867Z,99.90
2022-08-08T03:32:59.896Z,99.90
2022-08-08T03:35:37.207Z,99.90
2022-08-08T03:38:55.894Z,99.90
2022-08-08T03:40:56.020Z,99.90
2022-08-08T03:43:31.461Z,99.90
2022-08-08T03:46:09.218Z,99.90
2022-08-08T03:49:30.842Z,99.90
2022-08-08T03:51:50.438Z,99.90
2022-08-08T03:54:41.827Z,99.90
2022-08-08T03:58:33.455Z,99.90
2022-08-08T04:00:18.304Z,99.90
2022-08-08T04:03:00.378Z,99.90
2022-08-08T04:05:31.371Z,99.90
2022-08-08T04:08:06.679Z,99.90
2022-08-08T04:10:37.473Z,99.90
2022-08-08T04:13:18.065Z,99.90
2022-08-08T04:15:55.165Z,99.90
2022-08-08T04:18:44.745Z,99.90
2022-08-08T04:21:20.077Z,99.90
2022-08-08T04:24:05.389Z,99.90
2022-08-08T04:26:57.654Z,99.90
2022-08-08T04:29:36.748Z,99.90
2022-08-08T04:32:07.791Z,99.90
2022-08-08T04:34:43.029Z,99.90
2022-08-08T04:37:31.594Z,99.90
2022-08-08T04:40:10.762Z,99.90
2022-08-08T04:42:56.886Z,99.90
2022-08-08T04:45:33.706Z,99.90
2022-08-08T04:48:05.752Z,99.90
2022-08-08T04:50:38.702Z,99.90
2022-08-08T04:53:14.145Z,99.90
2022-08-08T04:56:00.987Z,99.90
2022-08-08T04:58:33.112Z,99.90
2022-08-08T05:01:08.985Z,99.90
2022-08-08T05:04:09.877Z,99.90
2022-08-08T05:06:29.056Z,99.90
2022-08-08T05:09:03.039Z,99.90
2022-08-08T05:11:38.837Z,99.90
2022-08-08T05:14:12.383Z,99.90
2022-08-08T05:16:55.526Z,99.90
2022-08-08T05:20:12.462Z,99.90
2022-08-08T05:22:22.239Z,99.90
2022-08-08T05:24:51.383Z,99.90
2022-08-08T05:27:21.807Z,99.90
2022-08-08T05:29:52.466Z,99.90
2022-08-08T05:32:27.384Z,99.90
2022-08-08T05:35:04.656Z,99.90
2022-08-08T05:37:52.901Z,99.90
2022-08-08T05:40:57.225Z,99.90
2022-08-08T05:43:39.366Z,99.90
2022-08-08T05:46:19.524Z,99.90
2022-08-08T05:48:52.168Z,99.90
2022-08-08T05:51:23.307Z,99.90
2022-08-08T05:54:28.803Z,99.90
2022-08-08T05:56:47.397Z,99.90
2022-08-08T06:00:01.056Z,99.90
2022-08-08T06:02:48.762Z,99.90
2022-08-08T06:05:34.533Z,99.90
2022-08-08T06:08:09.119Z,99.90
2022-08-08T06:10:41.397Z,99.90
2022-08-08T06:13:12.434Z,99.90
2022-08-08T06:15:50.818Z,99.50
2022-08-08T06:18:30.213Z,99.70
2022-08-08T06:21:03.731Z,99.60
2022-08-08T06:23:52.885Z,99.50
2022-08-08T06:26:43.174Z,99.40
2022-08-08T06:29:48.724Z,99.90
2022-08-08T06:32:15.200Z,99.30
2022-08-08T06:35:12.165Z,98.30
2022-08-08T06:37:50.878Z,98.70
2022-08-08T06:40:25.816Z,98.20
2022-08-08T06:43:03.362Z,97.90
2022-08-08T06:45:39.202Z,98.10
2022-08-08T06:48:08.653Z,97.90
2022-08-08T06:50:39.788Z,97.70
2022-08-08T06:53:17.193Z,97.80
2022-08-08T06:56:00.505Z,98.10
2022-08-08T06:58:33.563Z,98.10
2022-08-08T07:01:52.801Z,97.20
2022-08-08T07:04:37.121Z,97.10
2022-08-08T07:07:00.100Z,95.80
2022-08-08T07:09:45.346Z,96.90
2022-08-08T07:12:43.056Z,96.90
2022-08-08T07:15:32.786Z,95.90
2022-08-08T07:18:36.697Z,96.70
2022-08-08T07:21:04.939Z,97.20
2022-08-08T07:24:01.726Z,97.10
2022-08-08T07:26:41.152Z,97.40
2022-08-08T07:29:20.170Z,96.70
2022-08-08T07:31:58.928Z,96.70
2022-08-08T07:34:31.571Z,96.40
2022-08-08T07:37:11.808Z,96.70
2022-08-08T07:39:45.597Z,97.00
2022-08-08T07:42:25.899Z,96.80
2022-08-08T07:45:02.777Z,97.30
2022-08-08T07:47:38.441Z,97.80
2022-08-08T07:50:09.834Z,97.40
2022-08-08T07:52:43.535Z,97.00
2022-08-08T07:55:23.275Z,96.10
2022-08-08T07:58:31.927Z,95.80
2022-08-08T08:01:06.210Z,96.30
2022-08-08T08:04:01.697Z,94.80
2022-08-08T08:06:34.160Z,94.60
2022-08-08T08:09:13.249Z,94.30
2022-08-08T08:11:51.774Z,93.90
2022-08-08T08:14:34.063Z,93.50
2022-08-08T08:17:02.237Z,92.60
2022-08-08T08:19:45.694Z,93.20
2022-08-08T08:22:31.318Z,92.70
2022-08-08T08:25:07.942Z,92.90
2022-08-08T08:27:37.300Z,92.70
2022-08-08T08:30:07.348Z,92.70
2022-08-08T08:32:36.628Z,93.20
2022-08-08T08:35:15.275Z,93.90
2022-08-08T08:38:12.989Z,93.40
2022-08-08T08:40:34.705Z,92.80
2022-08-08T08:43:04.880Z,91.80
2022-08-08T08:45:39.669Z,91.50
2022-08-08T08:48:10.683Z,91.30
2022-08-08T08:50:52.095Z,91.70
2022-08-08T08:53:28.042Z,91.50
2022-08-08T08:56:23.783Z,91.50
2022-08-08T08:58:53.224Z,91.40
2022-08-08T09:01:32.174Z,90.60
2022-08-08T09:04:30.970Z,90.40
2022-08-08T09:06:59.511Z,90.60
2022-08-08T09:09:39.762Z,90.20
2022-08-08T09:12:22.805Z,90.10
2022-08-08T09:14:55.701Z,90.40
2022-08-08T09:17:40.913Z,90.50
2022-08-08T09:21:56.517Z,88.90
2022-08-08T09:23:05.341Z,88.40
2022-08-08T09:25:58.397Z,86.60
2022-08-08T09:28:38.537Z,82.90
2022-08-08T09:31:16.896Z,82.30
2022-08-08T09:34:15.521Z,82.00
2022-08-08T09:36:51.751Z,78.50
2022-08-08T09:40:00.192Z,77.60
2022-08-08T09:42:44.142Z,79.90
2022-08-08T09:45:55.149Z,80.10
2022-08-08T09:48:17.743Z,80.40
2022-08-08T09:50:51.705Z,79.70
2022-08-08T09:53:53.065Z,76.90
2022-08-08T09:56:21.763Z,75.50
2022-08-08T09:59:05.338Z,73.70
2022-08-08T10:02:00.148Z,71.90
2022-08-08T10:04:38.468Z,72.30
2022-08-08T10:07:15.968Z,74.30
2022-08-08T10:10:00.672Z,69.40
2022-08-08T10:12:38.777Z,72.40
2022-08-08T10:15:21.370Z,68.20
2022-08-08T10:18:04.112Z,70.10
2022-08-08T10:20:51.027Z,71.60
2022-08-08T10:23:41.809Z,70.50
2022-08-08T10:26:25.819Z,70.10
2022-08-08T10:29:11.249Z,70.50
2022-08-08T10:32:00.464Z,70.70
2022-08-08T10:34:29.872Z,71.20
2022-08-08T10:36:59.718Z,72.00
2022-08-08T10:39:31.763Z,70.70
2022-08-08T10:42:27.734Z,68.80
2022-08-08T10:45:16.044Z,70.00
2022-08-08T10:47:53.688Z,67.10
2022-08-08T10:50:30.861Z,68.80
2022-08-08T10:53:04.717Z,66.60
2022-08-08T10:55:40.901Z,67.80
2022-08-08T10:58:11.733Z,70.90
2022-08-08T11:00:53.578Z,70.90
2022-08-08T11:04:01.353Z,70.80
2022-08-08T11:06:34.366Z,72.20
2022-08-08T11:09:09.644Z,72.60
2022-08-08T11:12:05.960Z,73.70
2022-08-08T11:14:27.889Z,74.30
2022-08-08T11:16:55.925Z,75.60
2022-08-08T11:19:28.371Z,71.90
2022-08-08T11:21:59.588Z,72.50
2022-08-08T11:24:29.069Z,73.20
2022-08-08T11:27:00.995Z,72.80
2022-08-08T11:29:51.061Z,68.60
2022-08-08T11:32:32.080Z,66.90
2022-08-08T11:35:27.138Z,68.20
2022-08-08T11:38:36.628Z,66.10
2022-08-08T11:40:42.869Z,68.70
2022-08-08T11:43:13.743Z,68.30
2022-08-08T11:46:07.038Z,70.80
2022-08-08T11:48:32.325Z,71.40
2022-08-08T11:51:00.790Z,69.30
2022-08-08T11:53:55.328Z,66.40
2022-08-08T11:56:34.669Z,67.00
2022-08-08T11:59:11.996Z,67.40
2022-08-08T12:01:39.518Z,69.00
2022-08-08T12:04:09.345Z,68.90
2022-08-08T12:06:39.421Z,68.00
2022-08-08T12:09:17.322Z,65.10
2022-08-08T12:11:49.427Z,69.50
2022-08-08T12:14:28.956Z,69.50
2022-08-08T12:16:57.374Z,68.20
2022-08-08T12:19:37.415Z,65.80
2022-08-08T12:22:21.074Z,65.30
2022-08-08T12:24:53.727Z,66.60
2022-08-08T12:27:26.726Z,64.00
2022-08-08T12:29:57.398Z,65.00
2022-08-08T12:32:24.840Z,65.50
2022-08-08T12:35:13.116Z,64.10
2022-08-08T12:37:48.182Z,64.70
2022-08-08T12:40:54.466Z,65.50
2022-08-08T12:43:46.312Z,65.20
2022-08-08T12:46:25.351Z,64.70
2022-08-08T12:49:21.854Z,64.10
2022-08-08T12:51:53.768Z,66.20
2022-08-08T12:54:33.287Z,69.20
2022-08-08T12:57:25.819Z,67.50
2022-08-08T13:00:05.144Z,67.50
2022-08-08T13:02:51.457Z,68.00
2022-08-08T13:05:25.627Z,65.30
2022-08-08T13:08:03.517Z,68.40
2022-08-08T13:10:36.616Z,69.80
2022-08-08T13:13:34.676Z,68.30
2022-08-08T13:16:19.391Z,68.90
2022-08-08T13:18:57.024Z,68.30
2022-08-08T13:21:36.289Z,67.30
2022-08-08T13:24:18.774Z,68.60
2022-08-08T13:27:04.847Z,69.00
2022-08-08T13:29:40.865Z,67.70
2022-08-08T13:32:10.682Z,67.40
2022-08-08T13:34:40.032Z,68.30
2022-08-08T13:37:10.715Z,66.90
2022-08-08T13:39:55.416Z,67.60
2022-08-08T13:42:25.070Z,67.00
2022-08-08T13:44:56.979Z,65.00
2022-08-08T13:47:25.725Z,65.30
2022-08-08T13:50:35.546Z,63.10
2022-08-08T13:52:52.114Z,65.70
2022-08-08T13:55:29.600Z,65.20
2022-08-08T13:58:08.102Z,64.70
2022-08-08T14:00:40.362Z,64.30
2022-08-08T14:03:47.260Z,64.80
2022-08-08T14:06:32.338Z,65.40
2022-08-08T14:09:18.440Z,66.00
2022-08-08T14:11:48.841Z,65.60
2022-08-08T14:14:20.619Z,65.20
2022-08-08T14:16:52.958Z,67.10
2022-08-08T14:19:57.857Z,67.50
2022-08-08T14:22:24.730Z,67.10
2022-08-08T14:24:54.012Z,65.90
2022-08-08T14:27:28.854Z,67.50
2022-08-08T14:29:57.343Z,66.10
2022-08-08T14:32:30.052Z,67.50
2022-08-08T14:35:06.337Z,67.80
2022-08-08T14:37:59.914Z,66.40
2022-08-08T14:40:30.412Z,66.20
2022-08-08T14:43:01.362Z,66.10
2022-08-08T14:45:46.825Z,67.00
2022-08-08T14:48:27.498Z,67.00
2022-08-08T14:51:07.233Z,67.90
2022-08-08T14:53:54.675Z,68.40
2022-08-08T14:56:24.740Z,68.50
2022-08-08T14:58:54.273Z,68.50
2022-08-08T15:01:40.633Z,69.80
2022-08-08T15:04:11.089Z,68.40
2022-08-08T15:06:39.024Z,68.60
2022-08-08T15:09:09.841Z,69.60
2022-08-08T15:11:43.085Z,68.60
2022-08-08T15:14:15.180Z,68.90
2022-08-08T15:16:44.529Z,68.30
2022-08-08T15:19:11.926Z,69.00
2022-08-08T15:21:43.237Z,68.10
2022-08-08T15:24:12.849Z,68.60
2022-08-08T15:26:46.712Z,69.00
2022-08-08T15:29:22.441Z,67.80
2022-08-08T15:32:03.992Z,69.40
2022-08-08T15:34:38.852Z,69.50
2022-08-08T15:37:07.731Z,70.10
2022-08-08T15:39:37.909Z,70.50
2022-08-08T15:42:10.405Z,70.00
2022-08-08T15:44:42.503Z,70.50
2022-08-08T15:47:15.953Z,70.40
2022-08-08T15:49:48.025Z,70.80
2022-08-08T15:52:17.862Z,71.00
2022-08-08T15:54:47.828Z,71.00
2022-08-08T15:57:19.732Z,70.60
2022-08-08T16:00:05.426Z,70.20
2022-08-08T16:02:50.292Z,70.20
2022-08-08T16:05:20.606Z,71.00
2022-08-08T16:07:51.465Z,70.90
2022-08-08T16:13:10.726Z,70.60
2022-08-08T16:13:27.957Z,71.20
2022-08-08T16:16:08.950Z,70.40
2022-08-08T16:18:37.289Z,70.80
2022-08-08T16:21:20.515Z,71.40
2022-08-08T16:23:48.720Z,71.50
2022-08-08T16:26:19.266Z,71.10
2022-08-08T16:28:50.091Z,70.50
2022-08-08T16:31:18.737Z,71.00
2022-08-08T16:33:51.015Z,70.90
2022-08-08T16:36:33.953Z,72.50
2022-08-08T16:39:09.589Z,72.60
2022-08-08T16:41:51.233Z,71.00
2022-08-08T16:44:27.804Z,71.90
2022-08-08T16:47:40.326Z,71.80
2022-08-08T16:50:14.190Z,73.10
2022-08-08T16:54:59.769Z,73.60
2022-08-08T16:55:53.744Z,73.60
2022-08-08T16:58:26.267Z,73.40
2022-08-08T17:00:55.555Z,74.50
2022-08-08T17:03:57.912Z,74.10
2022-08-08T17:06:37.071Z,73.70
2022-08-08T17:09:03.546Z,74.40
2022-08-08T17:11:39.409Z,74.50
2022-08-08T17:14:17.901Z,75.10
2022-08-08T17:16:51.658Z,75.50
2022-08-08T17:19:24.661Z,76.40
2022-08-08T17:21:52.019Z,76.20
2022-08-08T17:24:27.912Z,75.90
2022-08-08T17:26:59.077Z,77.30
2022-08-08T17:29:27.987Z,77.30
2022-08-08T17:31:57.454Z,77.00
2022-08-08T17:34:48.199Z,78.10
2022-08-08T17:37:15.765Z,78.00
2022-08-08T17:40:12.362Z,79.30
2022-08-08T17:42:34.410Z,78.70
2022-08-08T17:45:03.504Z,79.10
2022-08-08T17:47:37.725Z,78.90
2022-08-08T17:50:09.681Z,80.00
2022-08-08T17:52:38.415Z,80.60
2022-08-08T17:56:04.774Z,81.40
2022-08-08T17:58:01.878Z,81.40
2022-08-08T18:00:31.512Z,82.10
2022-08-08T18:03:08.363Z,82.30
2022-08-08T18:05:49.615Z,82.80
2022-08-08T18:08:25.210Z,83.10
2022-08-08T18:11:15.463Z,83.20
2022-08-08T18:13:47.977Z,83.50
2022-08-08T18:16:23.177Z,84.60
2022-08-08T18:18:56.653Z,83.60
2022-08-08T18:21:58.735Z,83.10
2022-08-08T18:24:19.541Z,83.40
2022-08-08T18:26:53.839Z,83.40
2022-08-08T18:29:34.157Z,84.00
2022-08-08T18:32:09.159Z,84.90
2022-08-08T18:34:40.408Z,85.30
2022-08-08T18:37:33.929Z,85.30
2022-08-08T18:39:58.485Z,85.00
2022-08-08T18:42:25.791Z,85.20
2022-08-08T18:44:55.338Z,85.90
2022-08-08T18:47:27.063Z,86.20
2022-08-08T18:49:58.377Z,86.10
2022-08-08T18:52:28.323Z,86.70
2022-08-08T18:55:00.766Z,86.30
2022-08-08T18:57:41.231Z,87.20
2022-08-08T19:00:16.559Z,87.50
2022-08-08T19:02:56.646Z,87.70
2022-08-08T19:05:32.130Z,88.40
2022-08-08T19:08:25.268Z,89.30
2022-08-08T19:10:59.437Z,90.00
2022-08-08T19:13:53.685Z,90.20
2022-08-08T19:16:19.315Z,90.10
2022-08-08T19:18:53.346Z,90.10
2022-08-08T19:21:30.546Z,90.30
2022-08-08T19:24:01.021Z,90.60
2022-08-08T19:26:35.243Z,90.90
2022-08-08T19:29:04.461Z,91.10
2022-08-08T19:31:34.992Z,91.40
2022-08-08T19:34:35.764Z,91.80
2022-08-08T19:36:55.183Z,92.20
2022-08-08T19:39:23.305Z,92.90
2022-08-08T19:41:51.018Z,93.60
2022-08-08T19:44:42.667Z,93.50
2022-08-08T19:47:06.667Z,94.10
2022-08-08T19:49:37.722Z,94.80
2022-08-08T19:52:07.084Z,94.40
2022-08-08T19:54:34.188Z,94.90
2022-08-08T19:57:04.331Z,95.40
2022-08-08T19:59:35.925Z,95.50
2022-08-08T20:02:10.720Z,94.90
2022-08-08T20:04:38.295Z,94.30
2022-08-08T20:08:27.946Z,94.70
2022-08-08T20:09:57.121Z,94.30
2022-08-08T20:12:32.922Z,94.10
2022-08-08T20:15:10.410Z,94.00
2022-08-08T20:17:45.205Z,94.20
2022-08-08T20:20:18.815Z,94.80
2022-08-08T20:22:48.726Z,95.10
2022-08-08T20:25:20.276Z,95.00
2022-08-08T20:27:49.382Z,95.00
2022-08-08T20:30:38.866Z,95.10
2022-08-08T20:33:18.387Z,94.70
2022-08-08T20:35:59.011Z,95.10
2022-08-08T20:38:33.431Z,95.40
2022-08-08T20:41:05.778Z,95.70
2022-08-08T20:43:49.841Z,95.80
2022-08-08T20:46:20.968Z,96.10
2022-08-08T20:48:58.616Z,96.10
2022-08-08T20:51:32.361Z,95.80
2022-08-08T20:54:10.465Z,96.50
2022-08-08T20:57:04.675Z,96.40
2022-08-08T20:59:31.291Z,96.60
2022-08-08T21:02:07.194Z,96.00
2022-08-08T21:04:36.817Z,96.00
2022-08-08T21:07:13.170Z,96.00
2022-08-08T21:10:02.309Z,96.30
2022-08-08T21:12:36.381Z,97.00
2022-08-08T21:15:06.697Z,97.40
2022-08-08T21:17:35.586Z,98.40
2022-08-08T21:20:05.251Z,98.30
2022-08-08T21:22:32.602Z,98.10
2022-08-08T21:25:00.348Z,97.90
2022-08-08T21:28:05.507Z,98.00
2022-08-08T21:30:21.695Z,98.10
2022-08-08T21:32:52.195Z,97.80
2022-08-08T21:36:17.233Z,98.00
2022-08-08T21:38:16.300Z,98.60
2022-08-08T21:40:56.314Z,99.00
2022-08-08T21:43:32.945Z,99.50
2022-08-08T21:48:07.085Z,99.70
2022-08-08T21:48:53.941Z,99.90
2022-08-08T21:54:18.486Z,99.90
2022-08-08T21:54:33.709Z,99.30
2022-08-08T21:57:01.580Z,99.90
2022-08-08T22:00:01.775Z,99.90
2022-08-08T22:02:19.620Z,99.90
2022-08-08T22:04:51.505Z,99.90
2022-08-08T22:07:18.954Z,99.90
2022-08-08T22:09:46.661Z,99.90
2022-08-08T22:12:15.128Z,99.90
2022-08-08T22:14:47.229Z,99.90
2022-08-08T22:17:18.433Z,99.90
2022-08-08T22:20:11.883Z,99.90
2022-08-08T22:22:36.093Z,99.90
2022-08-08T22:25:19.805Z,99.90
2022-08-08T22:28:03.959Z,99.90
2022-08-08T22:30:42.369Z,99.90
2022-08-08T22:33:22.193Z,99.90
2022-08-08T22:36:04.466Z,99.90
2022-08-08T22:38:48.103Z,99.90
2022-08-08T22:41:21.258Z,99.90
2022-08-08T22:44:05.724Z,99.90
2022-08-08T22:46:38.648Z,99.90
2022-08-08T22:49:09.025Z,99.90
2022-08-08T22:51:42.198Z,99.90
2022-08-08T22:54:34.251Z,99.90
2022-08-08T22:56:58.290Z,99.90
2022-08-08T22:59:25.832Z,99.90
2022-08-08T23:02:02.156Z,99.90
2022-08-08T23:04:33.570Z,99.90
2022-08-08T23:07:02.671Z,99.90
2022-08-08T23:09:39.346Z,99.90
2022-08-08T23:12:39.940Z,99.90
2022-08-08T23:15:10.825Z,99.90
2022-08-08T23:17:58.389Z,99.90
2022-08-08T23:20:27.146Z,99.90
2022-08-08T23:22:55.406Z,99.90
2022-08-08T23:25:23.625Z,99.90
2022-08-08T23:27:54.312Z,99.90
2022-08-08T23:30:23.780Z,99.90
2022-08-08T23:32:51.593Z,99.90
2022-08-08T23:35:19.094Z,99.90
2022-08-08T23:38:02.903Z,99.90
2022-08-08T23:40:31.679Z,99.90
2022-08-08T23:43:02.677Z,99.90
2022-08-08T23:49:02.528Z,99.90
2022-08-08T23:49:06.164Z,99.90
2022-08-08T23:51:12.723Z,99.90
2022-08-08T23:54:01.313Z,99.90
2022-08-08T23:56:34.229Z,99.90
2022-08-08T23:59:02.436Z,99.90
